sensor_id;sensor_type;location;lat;lon;timestamp;P1;durP1;ratioP1;P2;durP2;ratioP2
51515;SDS011;37603;55.614;37.326;2023-05-14T00:00:22;4.4;;;2.3;;
51515;SDS011;37603;55.614;37.326;2023-05-14T00:06:22;5.9;;;2.2;;
51515;SDS011;37603;55.614;37.326;2023-05-14T00:12:21;4.8;;;2.5;;
51515;SDS011;37603;55.614;37.326;2023-05-14T00:24:20;11.4;;;2.6;;
51515;SDS011;37603;55.614;37.326;2023-05-14T00:30:19;4.6;;;2.3;;
51515;SDS011;37603;55.614;37.326;2023-05-14T00:36:18;4.0;;;2.4;;
51515;SDS011;37603;55.614;37.326;2023-05-14T00:42:18;5.7;;;2.3;;
51515;SDS011;37603;55.614;37.326;2023-05-14T00:54:16;4.3;;;2.5;;
51515;SDS011;37603;55.614;37.326;2023-05-14T01:00:16;6.4;;;2.4;;
51515;SDS011;37603;55.614;37.326;2023-05-14T01:06:16;4.0;;;2.5;;
51515;SDS011;37603;55.614;37.326;2023-05-14T01:12:16;5.5;;;2.5;;
51515;SDS011;37603;55.614;37.326;2023-05-14T01:18:15;6.3;;;2.5;;
51515;SDS011;37603;55.614;37.326;2023-05-14T01:24:12;5.3;;;2.6;;
51515;SDS011;37603;55.614;37.326;2023-05-14T01:30:12;4.2;;;2.8;;
51515;SDS011;37603;55.614;37.326;2023-05-14T01:36:11;4.8;;;2.5;;
51515;SDS011;37603;55.614;37.326;2023-05-14T01:42:10;6.6;;;2.6;;
51515;SDS011;37603;55.614;37.326;2023-05-14T01:48:09;5.4;;;2.9;;
51515;SDS011;37603;55.614;37.326;2023-05-14T01:54:08;4.3;;;2.7;;
51515;SDS011;37603;55.614;37.326;2023-05-14T02:00:08;5.9;;;2.9;;
51515;SDS011;37603;55.614;37.326;2023-05-14T02:06:07;5.4;;;2.6;;
51515;SDS011;37603;55.614;37.326;2023-05-14T02:12:07;6.3;;;2.6;;
51515;SDS011;37603;55.614;37.326;2023-05-14T02:18:05;9.2;;;2.8;;
51515;SDS011;37603;55.614;37.326;2023-05-14T02:24:04;5.3;;;2.5;;
51515;SDS011;37603;55.614;37.326;2023-05-14T02:30:04;5.5;;;2.6;;
51515;SDS011;37603;55.614;37.326;2023-05-14T02:36:03;5.6;;;2.7;;
51515;SDS011;37603;55.614;37.326;2023-05-14T02:48:01;6.4;;;2.6;;
51515;SDS011;37603;55.614;37.326;2023-05-14T02:54:00;5.5;;;3.0;;
51515;SDS011;37603;55.614;37.326;2023-05-14T03:00:00;6.0;;;3.0;;
51515;SDS011;37603;55.614;37.326;2023-05-14T03:05:59;6.6;;;2.9;;
51515;SDS011;37603;55.614;37.326;2023-05-14T03:11:58;5.6;;;3.0;;
51515;SDS011;37603;55.614;37.326;2023-05-14T03:17:57;4.7;;;2.9;;
51515;SDS011;37603;55.614;37.326;2023-05-14T03:23:57;5.8;;;2.7;;
51515;SDS011;37603;55.614;37.326;2023-05-14T03:29:56;5.4;;;3.1;;
51515;SDS011;37603;55.614;37.326;2023-05-14T03:35:55;6.7;;;3.7;;
51515;SDS011;37603;55.614;37.326;2023-05-14T03:41:54;5.5;;;2.9;;
51515;SDS011;37603;55.614;37.326;2023-05-14T03:47:53;5.8;;;2.7;;
51515;SDS011;37603;55.614;37.326;2023-05-14T03:53:53;5.4;;;2.5;;
51515;SDS011;37603;55.614;37.326;2023-05-14T03:59:52;5.0;;;2.7;;
51515;SDS011;37603;55.614;37.326;2023-05-14T04:05:51;8.3;;;2.9;;
51515;SDS011;37603;55.614;37.326;2023-05-14T04:11:50;4.9;;;2.5;;
51515;SDS011;37603;55.614;37.326;2023-05-14T04:17:49;4.0;;;2.2;;
51515;SDS011;37603;55.614;37.326;2023-05-14T04:23:49;4.6;;;2.6;;
51515;SDS011;37603;55.614;37.326;2023-05-14T04:29:48;4.9;;;2.6;;
51515;SDS011;37603;55.614;37.326;2023-05-14T04:35:47;5.8;;;2.6;;
51515;SDS011;37603;55.614;37.326;2023-05-14T04:41:47;6.8;;;2.4;;
51515;SDS011;37603;55.614;37.326;2023-05-14T04:47:46;4.2;;;2.2;;
51515;SDS011;37603;55.614;37.326;2023-05-14T04:53:45;5.0;;;2.4;;
51515;SDS011;37603;55.614;37.326;2023-05-14T04:59:45;5.4;;;2.4;;
51515;SDS011;37603;55.614;37.326;2023-05-14T05:05:44;4.9;;;2.3;;
51515;SDS011;37603;55.614;37.326;2023-05-14T05:11:44;3.5;;;2.0;;
51515;SDS011;37603;55.614;37.326;2023-05-14T05:17:43;4.6;;;2.2;;
51515;SDS011;37603;55.614;37.326;2023-05-14T05:23:42;3.2;;;2.2;;
51515;SDS011;37603;55.614;37.326;2023-05-14T05:29:42;5.7;;;2.0;;
51515;SDS011;37603;55.614;37.326;2023-05-14T05:35:41;4.6;;;2.1;;
51515;SDS011;37603;55.614;37.326;2023-05-14T05:41:41;4.3;;;2.5;;
51515;SDS011;37603;55.614;37.326;2023-05-14T05:53:40;4.7;;;2.2;;
51515;SDS011;37603;55.614;37.326;2023-05-14T05:59:39;4.1;;;2.1;;
51515;SDS011;37603;55.614;37.326;2023-05-14T06:11:39;4.3;;;2.4;;
51515;SDS011;37603;55.614;37.326;2023-05-14T06:17:38;5.6;;;2.0;;
51515;SDS011;37603;55.614;37.326;2023-05-14T06:23:39;3.7;;;1.9;;
51515;SDS011;37603;55.614;37.326;2023-05-14T06:29:37;4.2;;;1.9;;
51515;SDS011;37603;55.614;37.326;2023-05-14T06:41:37;2.6;;;1.6;;
51515;SDS011;37603;55.614;37.326;2023-05-14T06:47:36;2.3;;;1.2;;
51515;SDS011;37603;55.614;37.326;2023-05-14T06:53:36;3.5;;;1.1;;
51515;SDS011;37603;55.614;37.326;2023-05-14T07:05:36;3.2;;;1.3;;
51515;SDS011;37603;55.614;37.326;2023-05-14T07:11:35;3.6;;;1.4;;
51515;SDS011;37603;55.614;37.326;2023-05-14T07:17:35;3.1;;;1.5;;
51515;SDS011;37603;55.614;37.326;2023-05-14T07:23:34;3.5;;;1.5;;
51515;SDS011;37603;55.614;37.326;2023-05-14T07:29:34;3.9;;;1.4;;
51515;SDS011;37603;55.614;37.326;2023-05-14T07:35:33;2.8;;;1.2;;
51515;SDS011;37603;55.614;37.326;2023-05-14T07:41:33;3.5;;;1.3;;
51515;SDS011;37603;55.614;37.326;2023-05-14T07:47:32;3.3;;;1.4;;
51515;SDS011;37603;55.614;37.326;2023-05-14T07:53:32;3.6;;;1.6;;
51515;SDS011;37603;55.614;37.326;2023-05-14T07:59:31;2.8;;;1.3;;
51515;SDS011;37603;55.614;37.326;2023-05-14T08:05:31;2.4;;;1.1;;
51515;SDS011;37603;55.614;37.326;2023-05-14T08:11:30;3.3;;;1.1;;
51515;SDS011;37603;55.614;37.326;2023-05-14T08:23:29;2.9;;;0.9;;
51515;SDS011;37603;55.614;37.326;2023-05-14T08:29:29;1.8;;;1.2;;
51515;SDS011;37603;55.614;37.326;2023-05-14T08:35:28;3.9;;;1.0;;
51515;SDS011;37603;55.614;37.326;2023-05-14T08:41:28;4.6;;;1.3;;
51515;SDS011;37603;55.614;37.326;2023-05-14T08:47:28;3.0;;;1.2;;
51515;SDS011;37603;55.614;37.326;2023-05-14T08:53:27;1.8;;;1.1;;
51515;SDS011;37603;55.614;37.326;2023-05-14T08:59:27;5.9;;;1.5;;
51515;SDS011;37603;55.614;37.326;2023-05-14T09:05:26;2.2;;;1.2;;
51515;SDS011;37603;55.614;37.326;2023-05-14T09:11:26;2.0;;;1.2;;
51515;SDS011;37603;55.614;37.326;2023-05-14T09:17:25;3.1;;;1.3;;
51515;SDS011;37603;55.614;37.326;2023-05-14T09:23:25;2.3;;;1.0;;
51515;SDS011;37603;55.614;37.326;2023-05-14T09:29:25;3.0;;;1.1;;
51515;SDS011;37603;55.614;37.326;2023-05-14T09:35:24;1.6;;;1.2;;
51515;SDS011;37603;55.614;37.326;2023-05-14T09:41:24;4.3;;;1.6;;
51515;SDS011;37603;55.614;37.326;2023-05-14T09:47:23;4.5;;;1.6;;
51515;SDS011;37603;55.614;37.326;2023-05-14T09:53:23;3.1;;;1.5;;
51515;SDS011;37603;55.614;37.326;2023-05-14T09:59:22;3.2;;;1.3;;
51515;SDS011;37603;55.614;37.326;2023-05-14T10:05:22;4.1;;;1.7;;
51515;SDS011;37603;55.614;37.326;2023-05-14T10:11:23;3.1;;;1.3;;
51515;SDS011;37603;55.614;37.326;2023-05-14T10:17:21;2.1;;;1.5;;
51515;SDS011;37603;55.614;37.326;2023-05-14T10:29:21;2.9;;;1.3;;
51515;SDS011;37603;55.614;37.326;2023-05-14T10:35:20;4.1;;;1.2;;
51515;SDS011;37603;55.614;37.326;2023-05-14T10:41:19;2.3;;;1.2;;
51515;SDS011;37603;55.614;37.326;2023-05-14T10:47:19;3.5;;;1.2;;
51515;SDS011;37603;55.614;37.326;2023-05-14T10:53:18;3.3;;;1.4;;
51515;SDS011;37603;55.614;37.326;2023-05-14T10:59:18;1.8;;;1.1;;
51515;SDS011;37603;55.614;37.326;2023-05-14T11:05:18;2.9;;;1.2;;
51515;SDS011;37603;55.614;37.326;2023-05-14T11:11:17;2.5;;;1.0;;
51515;SDS011;37603;55.614;37.326;2023-05-14T11:17:17;5.4;;;2.4;;
51515;SDS011;37603;55.614;37.326;2023-05-14T11:23:16;4.1;;;1.2;;
51515;SDS011;37603;55.614;37.326;2023-05-14T11:29:16;4.8;;;1.2;;
51515;SDS011;37603;55.614;37.326;2023-05-14T11:35:16;1.4;;;0.8;;
51515;SDS011;37603;55.614;37.326;2023-05-14T11:41:15;2.0;;;1.3;;
51515;SDS011;37603;55.614;37.326;2023-05-14T11:47:16;3.7;;;1.0;;
51515;SDS011;37603;55.614;37.326;2023-05-14T11:53:15;2.9;;;1.0;;
51515;SDS011;37603;55.614;37.326;2023-05-14T11:59:14;2.3;;;1.0;;
51515;SDS011;37603;55.614;37.326;2023-05-14T12:05:14;4.1;;;1.2;;
51515;SDS011;37603;55.614;37.326;2023-05-14T12:11:13;1.7;;;1.1;;
51515;SDS011;37603;55.614;37.326;2023-05-14T12:17:13;3.1;;;1.1;;
51515;SDS011;37603;55.614;37.326;2023-05-14T12:23:13;2.5;;;0.9;;
51515;SDS011;37603;55.614;37.326;2023-05-14T12:29:13;1.3;;;1.2;;
51515;SDS011;37603;55.614;37.326;2023-05-14T12:35:12;2.9;;;1.1;;
51515;SDS011;37603;55.614;37.326;2023-05-14T12:41:12;2.3;;;1.0;;
51515;SDS011;37603;55.614;37.326;2023-05-14T12:47:11;2.2;;;1.1;;
51515;SDS011;37603;55.614;37.326;2023-05-14T12:53:11;1.7;;;1.0;;
51515;SDS011;37603;55.614;37.326;2023-05-14T12:59:10;3.0;;;1.1;;
51515;SDS011;37603;55.614;37.326;2023-05-14T13:05:10;3.1;;;1.2;;
51515;SDS011;37603;55.614;37.326;2023-05-14T13:11:10;3.4;;;1.4;;
51515;SDS011;37603;55.614;37.326;2023-05-14T13:17:09;4.0;;;2.5;;
51515;SDS011;37603;55.614;37.326;2023-05-14T13:23:09;5.6;;;2.7;;
51515;SDS011;37603;55.614;37.326;2023-05-14T13:29:09;2.6;;;1.6;;
51515;SDS011;37603;55.614;37.326;2023-05-14T13:35:08;2.4;;;1.1;;
51515;SDS011;37603;55.614;37.326;2023-05-14T13:41:08;4.7;;;1.1;;
51515;SDS011;37603;55.614;37.326;2023-05-14T13:47:07;6.0;;;1.3;;
51515;SDS011;37603;55.614;37.326;2023-05-14T13:53:07;2.5;;;1.4;;
51515;SDS011;37603;55.614;37.326;2023-05-14T13:59:06;2.4;;;1.1;;
51515;SDS011;37603;55.614;37.326;2023-05-14T14:11:06;1.9;;;1.3;;
51515;SDS011;37603;55.614;37.326;2023-05-14T14:17:05;3.7;;;1.5;;
51515;SDS011;37603;55.614;37.326;2023-05-14T14:23:05;2.8;;;1.1;;
51515;SDS011;37603;55.614;37.326;2023-05-14T14:29:04;1.4;;;0.9;;
51515;SDS011;37603;55.614;37.326;2023-05-14T14:35:04;3.3;;;1.6;;
51515;SDS011;37603;55.614;37.326;2023-05-14T14:41:04;6.9;;;1.6;;
51515;SDS011;37603;55.614;37.326;2023-05-14T14:47:03;3.5;;;1.4;;
51515;SDS011;37603;55.614;37.326;2023-05-14T14:53:03;2.6;;;1.1;;
51515;SDS011;37603;55.614;37.326;2023-05-14T14:59:02;1.6;;;1.1;;
51515;SDS011;37603;55.614;37.326;2023-05-14T15:05:02;4.3;;;1.4;;
51515;SDS011;37603;55.614;37.326;2023-05-14T15:11:01;4.5;;;1.4;;
51515;SDS011;37603;55.614;37.326;2023-05-14T15:17:01;4.2;;;1.3;;
51515;SDS011;37603;55.614;37.326;2023-05-14T15:23:01;2.4;;;1.4;;
51515;SDS011;37603;55.614;37.326;2023-05-14T15:29:00;4.8;;;1.3;;
51515;SDS011;37603;55.614;37.326;2023-05-14T15:35:00;2.8;;;1.1;;
51515;SDS011;37603;55.614;37.326;2023-05-14T15:40:59;4.4;;;1.9;;
51515;SDS011;37603;55.614;37.326;2023-05-14T15:46:59;4.2;;;1.8;;
51515;SDS011;37603;55.614;37.326;2023-05-14T15:52:58;5.0;;;1.4;;
51515;SDS011;37603;55.614;37.326;2023-05-14T15:58:58;2.4;;;1.5;;
51515;SDS011;37603;55.614;37.326;2023-05-14T16:04:57;2.7;;;0.9;;
51515;SDS011;37603;55.614;37.326;2023-05-14T16:16:56;2.6;;;1.1;;
51515;SDS011;37603;55.614;37.326;2023-05-14T16:22:56;1.9;;;1.0;;
51515;SDS011;37603;55.614;37.326;2023-05-14T16:28:55;1.8;;;1.1;;
51515;SDS011;37603;55.614;37.326;2023-05-14T16:34:55;3.4;;;1.3;;
51515;SDS011;37603;55.614;37.326;2023-05-14T16:40:54;3.0;;;1.4;;
51515;SDS011;37603;55.614;37.326;2023-05-14T16:46:54;3.1;;;1.2;;
51515;SDS011;37603;55.614;37.326;2023-05-14T16:52:54;1.8;;;1.3;;
51515;SDS011;37603;55.614;37.326;2023-05-14T16:58:53;2.4;;;1.2;;
51515;SDS011;37603;55.614;37.326;2023-05-14T17:04:53;3.1;;;1.5;;
51515;SDS011;37603;55.614;37.326;2023-05-14T17:10:52;4.4;;;1.6;;
51515;SDS011;37603;55.614;37.326;2023-05-14T17:16:52;5.1;;;2.6;;
51515;SDS011;37603;55.614;37.326;2023-05-14T17:22:51;16.3;;;12.2;;
51515;SDS011;37603;55.614;37.326;2023-05-14T17:28:51;2.6;;;1.4;;
51515;SDS011;37603;55.614;37.326;2023-05-14T17:34:50;2.7;;;1.7;;
51515;SDS011;37603;55.614;37.326;2023-05-14T17:40:50;4.1;;;1.5;;
51515;SDS011;37603;55.614;37.326;2023-05-14T17:46:49;5.0;;;1.7;;
51515;SDS011;37603;55.614;37.326;2023-05-14T17:52:49;4.6;;;1.7;;
51515;SDS011;37603;55.614;37.326;2023-05-14T17:58:48;4.2;;;2.0;;
51515;SDS011;37603;55.614;37.326;2023-05-14T18:04:48;5.6;;;1.7;;
51515;SDS011;37603;55.614;37.326;2023-05-14T18:10:47;13.9;;;11.1;;
51515;SDS011;37603;55.614;37.326;2023-05-14T18:16:46;6.5;;;3.8;;
51515;SDS011;37603;55.614;37.326;2023-05-14T18:22:45;7.8;;;6.5;;
51515;SDS011;37603;55.614;37.326;2023-05-14T18:28:45;7.0;;;4.3;;
51515;SDS011;37603;55.614;37.326;2023-05-14T18:34:44;4.7;;;3.5;;
51515;SDS011;37603;55.614;37.326;2023-05-14T18:40:44;5.9;;;3.6;;
51515;SDS011;37603;55.614;37.326;2023-05-14T18:46:43;5.2;;;3.7;;
51515;SDS011;37603;55.614;37.326;2023-05-14T18:52:42;4.7;;;3.5;;
51515;SDS011;37603;55.614;37.326;2023-05-14T18:58:42;4.6;;;3.3;;
51515;SDS011;37603;55.614;37.326;2023-05-14T19:04:41;5.6;;;3.6;;
51515;SDS011;37603;55.614;37.326;2023-05-14T19:10:40;5.1;;;3.7;;
51515;SDS011;37603;55.614;37.326;2023-05-14T19:16:40;6.5;;;3.4;;
51515;SDS011;37603;55.614;37.326;2023-05-14T19:22:39;4.7;;;3.7;;
51515;SDS011;37603;55.614;37.326;2023-05-14T19:28:38;5.6;;;4.1;;
51515;SDS011;37603;55.614;37.326;2023-05-14T19:34:37;7.0;;;3.8;;
51515;SDS011;37603;55.614;37.326;2023-05-14T19:40:36;4.5;;;3.5;;
51515;SDS011;37603;55.614;37.326;2023-05-14T19:52:35;5.6;;;3.8;;
51515;SDS011;37603;55.614;37.326;2023-05-14T20:04:33;4.7;;;4.2;;
51515;SDS011;37603;55.614;37.326;2023-05-14T20:22:31;5.2;;;3.7;;
51515;SDS011;37603;55.614;37.326;2023-05-14T20:34:29;5.9;;;3.9;;
51515;SDS011;37603;55.614;37.326;2023-05-14T20:46:28;4.7;;;3.8;;
51515;SDS011;37603;55.614;37.326;2023-05-14T20:52:27;8.1;;;4.4;;
51515;SDS011;37603;55.614;37.326;2023-05-14T20:58:26;5.9;;;4.3;;
51515;SDS011;37603;55.614;37.326;2023-05-14T21:04:25;7.6;;;5.0;;
51515;SDS011;37603;55.614;37.326;2023-05-14T21:16:23;7.2;;;5.9;;
51515;SDS011;37603;55.614;37.326;2023-05-14T21:22:22;8.8;;;6.4;;
51515;SDS011;37603;55.614;37.326;2023-05-14T21:28:21;8.3;;;6.4;;
51515;SDS011;37603;55.614;37.326;2023-05-14T21:34:20;8.8;;;5.8;;
51515;SDS011;37603;55.614;37.326;2023-05-14T21:40:20;7.4;;;5.8;;
51515;SDS011;37603;55.614;37.326;2023-05-14T21:46:19;7.8;;;6.1;;
51515;SDS011;37603;55.614;37.326;2023-05-14T21:52:18;8.0;;;5.7;;
51515;SDS011;37603;55.614;37.326;2023-05-14T22:04:16;9.2;;;6.0;;
51515;SDS011;37603;55.614;37.326;2023-05-14T22:10:15;8.8;;;5.9;;
51515;SDS011;37603;55.614;37.326;2023-05-14T22:16:14;9.4;;;5.7;;
51515;SDS011;37603;55.614;37.326;2023-05-14T22:22:13;7.5;;;5.8;;
51515;SDS011;37603;55.614;37.326;2023-05-14T22:28:12;7.6;;;5.3;;
51515;SDS011;37603;55.614;37.326;2023-05-14T22:34:11;6.7;;;5.2;;
51515;SDS011;37603;55.614;37.326;2023-05-14T22:40:11;10.0;;;5.5;;
51515;SDS011;37603;55.614;37.326;2023-05-14T22:46:10;9.6;;;5.1;;
51515;SDS011;37603;55.614;37.326;2023-05-14T22:52:09;11.5;;;6.1;;
51515;SDS011;37603;55.614;37.326;2023-05-14T22:58:08;11.3;;;6.1;;
51515;SDS011;37603;55.614;37.326;2023-05-14T23:04:07;8.0;;;5.6;;
51515;SDS011;37603;55.614;37.326;2023-05-14T23:10:06;11.5;;;5.9;;
51515;SDS011;37603;55.614;37.326;2023-05-14T23:16:05;8.9;;;5.5;;
51515;SDS011;37603;55.614;37.326;2023-05-14T23:22:04;11.1;;;6.3;;
51515;SDS011;37603;55.614;37.326;2023-05-14T23:28:03;8.9;;;5.9;;
51515;SDS011;37603;55.614;37.326;2023-05-14T23:34:02;10.8;;;5.8;;
51515;SDS011;37603;55.614;37.326;2023-05-14T23:40:01;8.6;;;5.8;;
51515;SDS011;37603;55.614;37.326;2023-05-14T23:46:00;9.9;;;5.9;;
51515;SDS011;37603;55.614;37.326;2023-05-14T23:51:59;8.7;;;6.5;;
51515;SDS011;37603;55.614;37.326;2023-05-14T23:57:58;9.3;;;6.9;;
